sensor_id;sensor_type;location;lat;lon;timestamp;P1;durP1;ratioP1;P2;durP2;ratioP2
3036;SDS011;1528;52.550;13.408;2023-05-21T00:02:28;18.30;;;17.00;;
3036;SDS011;1528;52.550;13.408;2023-05-21T00:05:14;19.13;;;17.63;;
3036;SDS011;1528;52.550;13.408;2023-05-21T00:08:02;18.40;;;17.00;;
3036;SDS011;1528;52.550;13.408;2023-05-21T00:10:48;19.37;;;17.97;;
3036;SDS011;1528;52.550;13.408;2023-05-21T00:13:34;19.83;;;18.47;;
3036;SDS011;1528;52.550;13.408;2023-05-21T00:16:21;18.00;;;16.67;;
3036;SDS011;1528;52.550;13.408;2023-05-21T00:19:06;17.47;;;16.17;;
3036;SDS011;1528;52.550;13.408;2023-05-21T00:21:52;18.67;;;17.47;;
3036;SDS011;1528;52.550;13.408;2023-05-21T00:24:40;18.20;;;17.00;;
3036;SDS011;1528;52.550;13.408;2023-05-21T00:27:25;19.77;;;18.33;;
3036;SDS011;1528;52.550;13.408;2023-05-21T00:30:11;18.70;;;17.07;;
3036;SDS011;1528;52.550;13.408;2023-05-21T00:32:57;19.60;;;18.10;;
3036;SDS011;1528;52.550;13.408;2023-05-21T00:35:45;19.47;;;18.07;;
3036;SDS011;1528;52.550;13.408;2023-05-21T00:38:31;19.43;;;18.00;;
3036;SDS011;1528;52.550;13.408;2023-05-21T00:41:18;19.40;;;17.57;;
3036;SDS011;1528;52.550;13.408;2023-05-21T00:44:05;19.13;;;17.57;;
3036;SDS011;1528;52.550;13.408;2023-05-21T00:46:51;21.93;;;20.20;;
3036;SDS011;1528;52.550;13.408;2023-05-21T00:49:37;19.40;;;17.80;;
3036;SDS011;1528;52.550;13.408;2023-05-21T00:52:23;19.97;;;18.57;;
3036;SDS011;1528;52.550;13.408;2023-05-21T00:55:10;18.77;;;17.37;;
3036;SDS011;1528;52.550;13.408;2023-05-21T00:57:57;18.80;;;17.40;;
3036;SDS011;1528;52.550;13.408;2023-05-21T01:00:44;19.37;;;17.77;;
3036;SDS011;1528;52.550;13.408;2023-05-21T01:03:31;20.63;;;19.03;;
3036;SDS011;1528;52.550;13.408;2023-05-21T01:06:21;19.47;;;18.07;;
3036;SDS011;1528;52.550;13.408;2023-05-21T01:09:07;20.10;;;18.70;;
3036;SDS011;1528;52.550;13.408;2023-05-21T01:11:52;18.43;;;17.13;;
3036;SDS011;1528;52.550;13.408;2023-05-21T01:14:40;20.17;;;18.67;;
3036;SDS011;1528;52.550;13.408;2023-05-21T01:17:27;20.00;;;18.50;;
3036;SDS011;1528;52.550;13.408;2023-05-21T01:20:14;19.90;;;18.50;;
3036;SDS011;1528;52.550;13.408;2023-05-21T01:23:03;19.07;;;17.50;;
3036;SDS011;1528;52.550;13.408;2023-05-21T01:25:50;20.77;;;19.30;;
3036;SDS011;1528;52.550;13.408;2023-05-21T01:28:35;20.37;;;18.80;;
3036;SDS011;1528;52.550;13.408;2023-05-21T01:31:22;20.33;;;18.90;;
3036;SDS011;1528;52.550;13.408;2023-05-21T01:34:10;19.40;;;18.00;;
3036;SDS011;1528;52.550;13.408;2023-05-21T01:37:02;20.50;;;19.00;;
3036;SDS011;1528;52.550;13.408;2023-05-21T01:39:54;20.13;;;18.67;;
3036;SDS011;1528;52.550;13.408;2023-05-21T01:42:45;20.87;;;19.33;;
3036;SDS011;1528;52.550;13.408;2023-05-21T01:45:31;19.20;;;17.80;;
3036;SDS011;1528;52.550;13.408;2023-05-21T01:48:20;20.93;;;19.23;;
3036;SDS011;1528;52.550;13.408;2023-05-21T01:51:07;20.63;;;19.13;;
3036;SDS011;1528;52.550;13.408;2023-05-21T01:53:53;20.20;;;18.80;;
3036;SDS011;1528;52.550;13.408;2023-05-21T01:56:40;21.10;;;19.60;;
3036;SDS011;1528;52.550;13.408;2023-05-21T01:59:25;21.63;;;19.93;;
3036;SDS011;1528;52.550;13.408;2023-05-21T02:02:12;21.67;;;19.97;;
3036;SDS011;1528;52.550;13.408;2023-05-21T02:04:58;20.50;;;19.03;;
3036;SDS011;1528;52.550;13.408;2023-05-21T02:07:44;22.93;;;21.30;;
3036;SDS011;1528;52.550;13.408;2023-05-21T02:10:30;21.77;;;20.17;;
3036;SDS011;1528;52.550;13.408;2023-05-21T02:13:17;23.23;;;21.33;;
3036;SDS011;1528;52.550;13.408;2023-05-21T02:16:05;23.30;;;21.17;;
3036;SDS011;1528;52.550;13.408;2023-05-21T02:18:53;23.77;;;22.00;;
3036;SDS011;1528;52.550;13.408;2023-05-21T02:21:40;23.67;;;21.77;;
3036;SDS011;1528;52.550;13.408;2023-05-21T02:24:25;23.30;;;21.47;;
3036;SDS011;1528;52.550;13.408;2023-05-21T02:27:11;23.13;;;21.53;;
3036;SDS011;1528;52.550;13.408;2023-05-21T02:30:01;24.20;;;22.37;;
3036;SDS011;1528;52.550;13.408;2023-05-21T02:32:47;22.60;;;20.80;;
3036;SDS011;1528;52.550;13.408;2023-05-21T02:35:33;21.97;;;20.40;;
3036;SDS011;1528;52.550;13.408;2023-05-21T02:38:18;23.30;;;21.40;;
3036;SDS011;1528;52.550;13.408;2023-05-21T02:41:05;22.63;;;20.87;;
3036;SDS011;1528;52.550;13.408;2023-05-21T02:43:51;24.57;;;22.77;;
3036;SDS011;1528;52.550;13.408;2023-05-21T02:46:38;25.53;;;23.60;;
3036;SDS011;1528;52.550;13.408;2023-05-21T02:49:24;25.53;;;23.40;;
3036;SDS011;1528;52.550;13.408;2023-05-21T02:52:10;23.57;;;21.73;;
3036;SDS011;1528;52.550;13.408;2023-05-21T02:54:56;25.77;;;23.93;;
3036;SDS011;1528;52.550;13.408;2023-05-21T02:57:41;24.43;;;22.47;;
3036;SDS011;1528;52.550;13.408;2023-05-21T03:00:27;24.63;;;22.70;;
3036;SDS011;1528;52.550;13.408;2023-05-21T03:03:14;25.03;;;22.90;;
3036;SDS011;1528;52.550;13.408;2023-05-21T03:06:00;24.90;;;23.10;;
3036;SDS011;1528;52.550;13.408;2023-05-21T03:08:45;26.17;;;24.20;;
3036;SDS011;1528;52.550;13.408;2023-05-21T03:11:31;24.90;;;23.20;;
3036;SDS011;1528;52.550;13.408;2023-05-21T03:14:16;26.60;;;24.63;;
3036;SDS011;1528;52.550;13.408;2023-05-21T03:17:02;27.90;;;25.73;;
3036;SDS011;1528;52.550;13.408;2023-05-21T03:19:49;28.37;;;26.33;;
3036;SDS011;1528;52.550;13.408;2023-05-21T03:22:35;28.07;;;25.90;;
3036;SDS011;1528;52.550;13.408;2023-05-21T03:25:21;27.23;;;25.00;;
3036;SDS011;1528;52.550;13.408;2023-05-21T03:28:08;28.57;;;26.37;;
3036;SDS011;1528;52.550;13.408;2023-05-21T03:30:53;28.23;;;25.90;;
3036;SDS011;1528;52.550;13.408;2023-05-21T03:33:39;29.57;;;27.37;;
3036;SDS011;1528;52.550;13.408;2023-05-21T03:36:26;27.87;;;25.67;;
3036;SDS011;1528;52.550;13.408;2023-05-21T03:39:11;28.03;;;26.00;;
3036;SDS011;1528;52.550;13.408;2023-05-21T03:41:57;28.03;;;25.80;;
3036;SDS011;1528;52.550;13.408;2023-05-21T03:44:43;26.03;;;24.13;;
3036;SDS011;1528;52.550;13.408;2023-05-21T03:47:28;27.90;;;25.80;;
3036;SDS011;1528;52.550;13.408;2023-05-21T03:50:14;28.10;;;25.90;;
3036;SDS011;1528;52.550;13.408;2023-05-21T03:53:01;27.73;;;25.73;;
3036;SDS011;1528;52.550;13.408;2023-05-21T03:55:46;26.07;;;24.17;;
3036;SDS011;1528;52.550;13.408;2023-05-21T03:58:37;26.60;;;24.33;;
3036;SDS011;1528;52.550;13.408;2023-05-21T04:01:23;28.70;;;26.50;;
3036;SDS011;1528;52.550;13.408;2023-05-21T04:04:10;26.10;;;24.00;;
3036;SDS011;1528;52.550;13.408;2023-05-21T04:06:56;27.20;;;25.10;;
3036;SDS011;1528;52.550;13.408;2023-05-21T04:09:43;27.00;;;25.00;;
3036;SDS011;1528;52.550;13.408;2023-05-21T04:12:29;29.00;;;26.70;;
3036;SDS011;1528;52.550;13.408;2023-05-21T04:15:15;27.40;;;25.40;;
3036;SDS011;1528;52.550;13.408;2023-05-21T04:18:01;27.00;;;24.90;;
3036;SDS011;1528;52.550;13.408;2023-05-21T04:20:46;28.00;;;26.00;;
3036;SDS011;1528;52.550;13.408;2023-05-21T04:23:33;29.57;;;27.47;;
3036;SDS011;1528;52.550;13.408;2023-05-21T04:26:20;28.67;;;26.37;;
3036;SDS011;1528;52.550;13.408;2023-05-21T04:29:06;28.70;;;26.67;;
3036;SDS011;1528;52.550;13.408;2023-05-21T04:31:52;28.07;;;26.07;;
3036;SDS011;1528;52.550;13.408;2023-05-21T04:34:38;30.80;;;28.40;;
3036;SDS011;1528;52.550;13.408;2023-05-21T04:37:24;29.30;;;26.80;;
3036;SDS011;1528;52.550;13.408;2023-05-21T04:40:10;28.73;;;26.60;;
3036;SDS011;1528;52.550;13.408;2023-05-21T04:43:02;29.23;;;27.23;;
3036;SDS011;1528;52.550;13.408;2023-05-21T04:45:47;29.63;;;27.43;;
3036;SDS011;1528;52.550;13.408;2023-05-21T04:48:32;27.63;;;25.53;;
3036;SDS011;1528;52.550;13.408;2023-05-21T04:51:18;28.63;;;26.43;;
3036;SDS011;1528;52.550;13.408;2023-05-21T04:54:03;28.10;;;25.93;;
3036;SDS011;1528;52.550;13.408;2023-05-21T04:56:49;28.87;;;26.63;;
3036;SDS011;1528;52.550;13.408;2023-05-21T04:59:36;27.13;;;25.20;;
3036;SDS011;1528;52.550;13.408;2023-05-21T05:02:22;27.97;;;25.97;;
3036;SDS011;1528;52.550;13.408;2023-05-21T05:05:07;26.53;;;24.53;;
3036;SDS011;1528;52.550;13.408;2023-05-21T05:07:53;25.37;;;23.50;;
3036;SDS011;1528;52.550;13.408;2023-05-21T05:10:40;27.47;;;25.23;;
3036;SDS011;1528;52.550;13.408;2023-05-21T05:13:25;27.53;;;25.70;;
3036;SDS011;1528;52.550;13.408;2023-05-21T05:16:12;28.60;;;26.30;;
3036;SDS011;1528;52.550;13.408;2023-05-21T05:19:08;29.17;;;26.87;;
3036;SDS011;1528;52.550;13.408;2023-05-21T05:21:53;28.37;;;26.23;;
3036;SDS011;1528;52.550;13.408;2023-05-21T05:24:39;30.30;;;28.13;;
3036;SDS011;1528;52.550;13.408;2023-05-21T05:27:25;27.60;;;25.50;;
3036;SDS011;1528;52.550;13.408;2023-05-21T05:30:10;27.97;;;25.80;;
3036;SDS011;1528;52.550;13.408;2023-05-21T05:32:57;27.00;;;25.00;;
3036;SDS011;1528;52.550;13.408;2023-05-21T05:35:43;29.50;;;27.40;;
3036;SDS011;1528;52.550;13.408;2023-05-21T05:38:29;26.80;;;24.53;;
3036;SDS011;1528;52.550;13.408;2023-05-21T05:41:15;27.53;;;25.57;;
3036;SDS011;1528;52.550;13.408;2023-05-21T05:44:00;26.67;;;24.73;;
3036;SDS011;1528;52.550;13.408;2023-05-21T05:46:46;25.57;;;23.60;;
3036;SDS011;1528;52.550;13.408;2023-05-21T05:49:33;26.87;;;24.97;;
3036;SDS011;1528;52.550;13.408;2023-05-21T05:52:19;24.20;;;22.40;;
3036;SDS011;1528;52.550;13.408;2023-05-21T05:55:05;26.50;;;24.60;;
3036;SDS011;1528;52.550;13.408;2023-05-21T05:57:52;26.73;;;24.83;;
3036;SDS011;1528;52.550;13.408;2023-05-21T06:00:37;26.27;;;24.37;;
3036;SDS011;1528;52.550;13.408;2023-05-21T06:03:23;25.30;;;23.53;;
3036;SDS011;1528;52.550;13.408;2023-05-21T06:06:10;24.47;;;22.67;;
3036;SDS011;1528;52.550;13.408;2023-05-21T06:08:56;25.20;;;23.50;;
3036;SDS011;1528;52.550;13.408;2023-05-21T06:11:41;24.70;;;23.00;;
3036;SDS011;1528;52.550;13.408;2023-05-21T06:14:27;24.50;;;22.80;;
3036;SDS011;1528;52.550;13.408;2023-05-21T06:17:12;24.70;;;22.80;;
3036;SDS011;1528;52.550;13.408;2023-05-21T06:19:58;25.03;;;22.77;;
3036;SDS011;1528;52.550;13.408;2023-05-21T06:22:51;25.47;;;23.77;;
3036;SDS011;1528;52.550;13.408;2023-05-21T06:25:37;22.80;;;21.30;;
3036;SDS011;1528;52.550;13.408;2023-05-21T06:28:23;24.80;;;23.10;;
3036;SDS011;1528;52.550;13.408;2023-05-21T06:31:09;23.80;;;22.10;;
3036;SDS011;1528;52.550;13.408;2023-05-21T06:33:56;22.87;;;21.27;;
3036;SDS011;1528;52.550;13.408;2023-05-21T06:36:41;21.93;;;20.50;;
3036;SDS011;1528;52.550;13.408;2023-05-21T06:39:28;23.53;;;21.70;;
3036;SDS011;1528;52.550;13.408;2023-05-21T06:42:14;24.80;;;22.80;;
3036;SDS011;1528;52.550;13.408;2023-05-21T06:45:00;23.67;;;22.07;;
3036;SDS011;1528;52.550;13.408;2023-05-21T06:47:46;24.83;;;23.03;;
3036;SDS011;1528;52.550;13.408;2023-05-21T06:50:31;25.10;;;23.37;;
3036;SDS011;1528;52.550;13.408;2023-05-21T06:53:17;24.57;;;22.63;;
3036;SDS011;1528;52.550;13.408;2023-05-21T06:56:04;24.20;;;22.07;;
3036;SDS011;1528;52.550;13.408;2023-05-21T06:58:50;21.90;;;20.20;;
3036;SDS011;1528;52.550;13.408;2023-05-21T07:01:36;21.33;;;19.87;;
3036;SDS011;1528;52.550;13.408;2023-05-21T07:04:24;23.47;;;21.77;;
3036;SDS011;1528;52.550;13.408;2023-05-21T07:07:10;22.60;;;20.90;;
3036;SDS011;1528;52.550;13.408;2023-05-21T07:09:56;21.90;;;20.50;;
3036;SDS011;1528;52.550;13.408;2023-05-21T07:12:43;22.93;;;21.43;;
3036;SDS011;1528;52.550;13.408;2023-05-21T07:15:28;21.70;;;20.30;;
3036;SDS011;1528;52.550;13.408;2023-05-21T07:18:14;22.00;;;20.40;;
3036;SDS011;1528;52.550;13.408;2023-05-21T07:20:59;20.93;;;19.23;;
3036;SDS011;1528;52.550;13.408;2023-05-21T07:23:45;21.47;;;20.07;;
3036;SDS011;1528;52.550;13.408;2023-05-21T07:26:30;22.53;;;20.73;;
3036;SDS011;1528;52.550;13.408;2023-05-21T07:29:17;22.00;;;20.50;;
3036;SDS011;1528;52.550;13.408;2023-05-21T07:32:03;20.80;;;19.47;;
3036;SDS011;1528;52.550;13.408;2023-05-21T07:34:49;20.50;;;19.00;;
3036;SDS011;1528;52.550;13.408;2023-05-21T07:37:35;22.17;;;20.43;;
3036;SDS011;1528;52.550;13.408;2023-05-21T07:40:21;20.77;;;19.27;;
3036;SDS011;1528;52.550;13.408;2023-05-21T07:43:06;17.33;;;16.10;;
3036;SDS011;1528;52.550;13.408;2023-05-21T07:45:53;19.57;;;18.10;;
3036;SDS011;1528;52.550;13.408;2023-05-21T07:48:38;20.13;;;18.73;;
3036;SDS011;1528;52.550;13.408;2023-05-21T07:51:24;18.10;;;16.87;;
3036;SDS011;1528;52.550;13.408;2023-05-21T07:54:10;18.60;;;17.40;;
3036;SDS011;1528;52.550;13.408;2023-05-21T07:56:56;18.37;;;17.17;;
3036;SDS011;1528;52.550;13.408;2023-05-21T07:59:42;16.50;;;15.40;;
3036;SDS011;1528;52.550;13.408;2023-05-21T08:02:28;18.40;;;17.03;;
3036;SDS011;1528;52.550;13.408;2023-05-21T08:05:14;18.37;;;17.13;;
3036;SDS011;1528;52.550;13.408;2023-05-21T08:08:00;19.00;;;17.60;;
3036;SDS011;1528;52.550;13.408;2023-05-21T08:10:45;19.03;;;17.73;;
3036;SDS011;1528;52.550;13.408;2023-05-21T08:13:31;17.07;;;15.97;;
3036;SDS011;1528;52.550;13.408;2023-05-21T08:16:17;18.10;;;16.90;;
3036;SDS011;1528;52.550;13.408;2023-05-21T08:19:05;19.73;;;18.40;;
3036;SDS011;1528;52.550;13.408;2023-05-21T08:21:50;17.90;;;16.60;;
3036;SDS011;1528;52.550;13.408;2023-05-21T08:24:36;17.83;;;16.33;;
3036;SDS011;1528;52.550;13.408;2023-05-21T08:27:22;16.50;;;15.40;;
3036;SDS011;1528;52.550;13.408;2023-05-21T08:30:08;16.80;;;15.30;;
3036;SDS011;1528;52.550;13.408;2023-05-21T08:32:54;15.67;;;14.67;;
3036;SDS011;1528;52.550;13.408;2023-05-21T08:35:41;15.63;;;14.57;;
3036;SDS011;1528;52.550;13.408;2023-05-21T08:38:27;15.20;;;14.10;;
3036;SDS011;1528;52.550;13.408;2023-05-21T08:41:12;15.77;;;14.77;;
3036;SDS011;1528;52.550;13.408;2023-05-21T08:44:00;16.00;;;14.90;;
3036;SDS011;1528;52.550;13.408;2023-05-21T08:46:48;15.70;;;14.70;;
3036;SDS011;1528;52.550;13.408;2023-05-21T08:49:34;16.50;;;15.20;;
3036;SDS011;1528;52.550;13.408;2023-05-21T08:52:21;14.83;;;13.83;;
3036;SDS011;1528;52.550;13.408;2023-05-21T08:55:08;15.03;;;14.00;;
3036;SDS011;1528;52.550;13.408;2023-05-21T08:57:53;16.07;;;14.97;;
3036;SDS011;1528;52.550;13.408;2023-05-21T09:00:39;13.83;;;12.93;;
3036;SDS011;1528;52.550;13.408;2023-05-21T09:03:24;14.00;;;13.00;;
3036;SDS011;1528;52.550;13.408;2023-05-21T09:06:11;13.40;;;12.40;;
3036;SDS011;1528;52.550;13.408;2023-05-21T09:09:01;13.63;;;12.73;;
3036;SDS011;1528;52.550;13.408;2023-05-21T09:11:53;14.33;;;13.40;;
3036;SDS011;1528;52.550;13.408;2023-05-21T09:14:39;14.30;;;13.07;;
3036;SDS011;1528;52.550;13.408;2023-05-21T09:17:25;13.73;;;12.73;;
3036;SDS011;1528;52.550;13.408;2023-05-21T09:20:11;13.63;;;12.57;;
3036;SDS011;1528;52.550;13.408;2023-05-21T09:23:01;14.17;;;13.30;;
3036;SDS011;1528;52.550;13.408;2023-05-21T09:25:49;13.17;;;12.27;;
3036;SDS011;1528;52.550;13.408;2023-05-21T09:28:35;13.00;;;12.20;;
3036;SDS011;1528;52.550;13.408;2023-05-21T09:31:21;13.73;;;12.57;;
3036;SDS011;1528;52.550;13.408;2023-05-21T09:34:08;13.07;;;12.10;;
3036;SDS011;1528;52.550;13.408;2023-05-21T09:36:55;11.90;;;10.90;;
3036;SDS011;1528;52.550;13.408;2023-05-21T09:39:41;12.53;;;11.53;;
3036;SDS011;1528;52.550;13.408;2023-05-21T09:42:29;12.30;;;11.33;;
3036;SDS011;1528;52.550;13.408;2023-05-21T09:45:18;12.37;;;11.60;;
3036;SDS011;1528;52.550;13.408;2023-05-21T09:48:04;12.27;;;11.37;;
3036;SDS011;1528;52.550;13.408;2023-05-21T09:50:50;12.33;;;11.40;;
3036;SDS011;1528;52.550;13.408;2023-05-21T09:53:36;12.00;;;11.00;;
3036;SDS011;1528;52.550;13.408;2023-05-21T09:56:27;12.57;;;11.63;;
3036;SDS011;1528;52.550;13.408;2023-05-21T09:59:16;12.53;;;11.50;;
3036;SDS011;1528;52.550;13.408;2023-05-21T10:02:02;13.10;;;12.30;;
3036;SDS011;1528;52.550;13.408;2023-05-21T10:04:48;13.77;;;12.67;;
3036;SDS011;1528;52.550;13.408;2023-05-21T10:07:35;11.50;;;10.70;;
3036;SDS011;1528;52.550;13.408;2023-05-21T10:10:22;12.80;;;11.97;;
3036;SDS011;1528;52.550;13.408;2023-05-21T10:13:08;11.97;;;11.17;;
3036;SDS011;1528;52.550;13.408;2023-05-21T10:15:58;12.40;;;11.50;;
3036;SDS011;1528;52.550;13.408;2023-05-21T10:18:46;13.80;;;12.90;;
3036;SDS011;1528;52.550;13.408;2023-05-21T10:21:32;13.40;;;12.37;;
3036;SDS011;1528;52.550;13.408;2023-05-21T10:24:17;13.07;;;12.03;;
3036;SDS011;1528;52.550;13.408;2023-05-21T10:27:03;13.07;;;12.07;;
3036;SDS011;1528;52.550;13.408;2023-05-21T10:29:50;11.77;;;10.90;;
3036;SDS011;1528;52.550;13.408;2023-05-21T10:32:39;12.03;;;11.20;;
3036;SDS011;1528;52.550;13.408;2023-05-21T10:35:26;12.33;;;11.30;;
3036;SDS011;1528;52.550;13.408;2023-05-21T10:38:13;12.73;;;11.93;;
3036;SDS011;1528;52.550;13.408;2023-05-21T10:41:02;11.93;;;11.23;;
3036;SDS011;1528;52.550;13.408;2023-05-21T10:43:55;12.27;;;11.50;;
3036;SDS011;1528;52.550;13.408;2023-05-21T10:50:13;12.40;;;11.70;;
3036;SDS011;1528;52.550;13.408;2023-05-21T10:53:12;13.47;;;12.60;;
3036;SDS011;1528;52.550;13.408;2023-05-21T10:56:06;12.30;;;11.50;;
3036;SDS011;1528;52.550;13.408;2023-05-21T10:59:11;13.27;;;12.07;;
3036;SDS011;1528;52.550;13.408;2023-05-21T11:02:04;13.47;;;12.57;;
3036;SDS011;1528;52.550;13.408;2023-05-21T11:04:56;13.03;;;11.40;;
3036;SDS011;1528;52.550;13.408;2023-05-21T11:10:50;12.90;;;12.00;;
3036;SDS011;1528;52.550;13.408;2023-05-21T11:13:44;12.23;;;11.47;;
3036;SDS011;1528;52.550;13.408;2023-05-21T11:16:31;13.70;;;12.90;;
3036;SDS011;1528;52.550;13.408;2023-05-21T11:19:20;11.27;;;10.47;;
3036;SDS011;1528;52.550;13.408;2023-05-21T11:22:06;12.00;;;11.30;;
3036;SDS011;1528;52.550;13.408;2023-05-21T11:24:54;12.30;;;11.60;;
3036;SDS011;1528;52.550;13.408;2023-05-21T11:27:45;12.47;;;11.40;;
3036;SDS011;1528;52.550;13.408;2023-05-21T11:30:31;10.37;;;9.53;;
3036;SDS011;1528;52.550;13.408;2023-05-21T11:33:17;11.80;;;10.90;;
3036;SDS011;1528;52.550;13.408;2023-05-21T11:36:03;11.70;;;11.00;;
3036;SDS011;1528;52.550;13.408;2023-05-21T11:39:06;11.73;;;10.83;;
3036;SDS011;1528;52.550;13.408;2023-05-21T11:41:57;14.73;;;13.33;;
3036;SDS011;1528;52.550;13.408;2023-05-21T11:44:43;11.70;;;10.73;;
3036;SDS011;1528;52.550;13.408;2023-05-21T11:47:31;12.30;;;11.60;;
3036;SDS011;1528;52.550;13.408;2023-05-21T11:50:17;11.70;;;10.80;;
3036;SDS011;1528;52.550;13.408;2023-05-21T11:53:03;11.10;;;10.50;;
3036;SDS011;1528;52.550;13.408;2023-05-21T11:55:50;11.63;;;10.93;;
3036;SDS011;1528;52.550;13.408;2023-05-21T11:58:42;11.37;;;10.53;;
3036;SDS011;1528;52.550;13.408;2023-05-21T12:01:27;9.83;;;9.10;;
3036;SDS011;1528;52.550;13.408;2023-05-21T12:04:13;11.90;;;11.03;;
3036;SDS011;1528;52.550;13.408;2023-05-21T12:07:01;10.47;;;9.67;;
3036;SDS011;1528;52.550;13.408;2023-05-21T12:09:48;10.57;;;9.87;;
3036;SDS011;1528;52.550;13.408;2023-05-21T12:12:34;11.53;;;10.73;;
3036;SDS011;1528;52.550;13.408;2023-05-21T12:15:22;9.10;;;8.60;;
3036;SDS011;1528;52.550;13.408;2023-05-21T12:18:08;11.50;;;10.60;;
3036;SDS011;1528;52.550;13.408;2023-05-21T12:20:54;11.73;;;11.00;;
3036;SDS011;1528;52.550;13.408;2023-05-21T12:23:39;11.67;;;11.17;;
3036;SDS011;1528;52.550;13.408;2023-05-21T12:26:25;12.00;;;11.40;;
3036;SDS011;1528;52.550;13.408;2023-05-21T12:29:11;9.60;;;8.90;;
3036;SDS011;1528;52.550;13.408;2023-05-21T12:31:59;9.63;;;9.13;;
3036;SDS011;1528;52.550;13.408;2023-05-21T12:34:46;10.70;;;10.10;;
3036;SDS011;1528;52.550;13.408;2023-05-21T12:37:32;9.03;;;8.53;;
3036;SDS011;1528;52.550;13.408;2023-05-21T12:40:18;11.27;;;10.67;;
3036;SDS011;1528;52.550;13.408;2023-05-21T12:43:04;10.80;;;10.40;;
3036;SDS011;1528;52.550;13.408;2023-05-21T12:45:50;10.80;;;10.30;;
3036;SDS011;1528;52.550;13.408;2023-05-21T12:48:36;11.20;;;10.60;;
3036;SDS011;1528;52.550;13.408;2023-05-21T12:51:22;12.73;;;12.13;;
3036;SDS011;1528;52.550;13.408;2023-05-21T12:54:10;12.50;;;11.67;;
3036;SDS011;1528;52.550;13.408;2023-05-21T12:56:56;11.40;;;10.90;;
3036;SDS011;1528;52.550;13.408;2023-05-21T12:59:43;12.07;;;11.50;;
3036;SDS011;1528;52.550;13.408;2023-05-21T13:02:33;9.67;;;9.07;;
3036;SDS011;1528;52.550;13.408;2023-05-21T13:05:20;10.07;;;9.37;;
3036;SDS011;1528;52.550;13.408;2023-05-21T13:08:06;8.83;;;8.43;;
3036;SDS011;1528;52.550;13.408;2023-05-21T13:10:53;10.90;;;10.03;;
3036;SDS011;1528;52.550;13.408;2023-05-21T13:13:38;12.13;;;11.43;;
3036;SDS011;1528;52.550;13.408;2023-05-21T13:16:24;9.70;;;9.00;;
3036;SDS011;1528;52.550;13.408;2023-05-21T13:19:09;9.63;;;9.00;;
3036;SDS011;1528;52.550;13.408;2023-05-21T13:21:56;11.07;;;10.40;;
3036;SDS011;1528;52.550;13.408;2023-05-21T13:24:42;11.23;;;10.73;;
3036;SDS011;1528;52.550;13.408;2023-05-21T13:27:28;11.30;;;10.70;;
3036;SDS011;1528;52.550;13.408;2023-05-21T13:30:13;10.13;;;9.53;;
3036;SDS011;1528;52.550;13.408;2023-05-21T13:32:59;11.80;;;11.10;;
3036;SDS011;1528;52.550;13.408;2023-05-21T13:35:45;11.63;;;11.10;;
3036;SDS011;1528;52.550;13.408;2023-05-21T13:38:35;11.00;;;10.40;;
3036;SDS011;1528;52.550;13.408;2023-05-21T13:41:20;13.03;;;12.13;;
3036;SDS011;1528;52.550;13.408;2023-05-21T13:44:06;11.50;;;10.90;;
3036;SDS011;1528;52.550;13.408;2023-05-21T13:46:51;10.50;;;10.00;;
3036;SDS011;1528;52.550;13.408;2023-05-21T13:49:37;10.30;;;9.73;;
3036;SDS011;1528;52.550;13.408;2023-05-21T13:52:23;11.90;;;11.30;;
3036;SDS011;1528;52.550;13.408;2023-05-21T13:55:10;12.17;;;11.53;;
3036;SDS011;1528;52.550;13.408;2023-05-21T13:57:58;10.43;;;9.80;;
3036;SDS011;1528;52.550;13.408;2023-05-21T14:00:43;12.77;;;12.13;;
3036;SDS011;1528;52.550;13.408;2023-05-21T14:03:29;11.13;;;10.53;;
3036;SDS011;1528;52.550;13.408;2023-05-21T14:06:15;10.57;;;9.87;;
3036;SDS011;1528;52.550;13.408;2023-05-21T14:09:00;10.93;;;10.43;;
3036;SDS011;1528;52.550;13.408;2023-05-21T14:11:48;9.10;;;8.60;;
3036;SDS011;1528;52.550;13.408;2023-05-21T14:14:33;10.43;;;9.93;;
3036;SDS011;1528;52.550;13.408;2023-05-21T14:17:19;9.67;;;9.17;;
3036;SDS011;1528;52.550;13.408;2023-05-21T14:20:05;10.70;;;10.20;;
3036;SDS011;1528;52.550;13.408;2023-05-21T14:22:51;9.70;;;9.20;;
3036;SDS011;1528;52.550;13.408;2023-05-21T14:25:37;9.53;;;8.93;;
3036;SDS011;1528;52.550;13.408;2023-05-21T14:28:24;10.50;;;9.90;;
3036;SDS011;1528;52.550;13.408;2023-05-21T14:31:09;8.30;;;7.73;;
3036;SDS011;1528;52.550;13.408;2023-05-21T14:33:55;11.73;;;11.17;;
3036;SDS011;1528;52.550;13.408;2023-05-21T14:36:41;9.67;;;9.07;;
3036;SDS011;1528;52.550;13.408;2023-05-21T14:39:26;11.37;;;10.63;;
3036;SDS011;1528;52.550;13.408;2023-05-21T14:42:12;10.07;;;9.57;;
3036;SDS011;1528;52.550;13.408;2023-05-21T14:44:59;10.13;;;9.47;;
3036;SDS011;1528;52.550;13.408;2023-05-21T14:47:45;11.13;;;10.63;;
3036;SDS011;1528;52.550;13.408;2023-05-21T14:50:31;11.90;;;11.20;;
3036;SDS011;1528;52.550;13.408;2023-05-21T14:53:17;11.03;;;10.53;;
3036;SDS011;1528;52.550;13.408;2023-05-21T14:56:04;10.87;;;10.37;;
3036;SDS011;1528;52.550;13.408;2023-05-21T14:58:50;10.23;;;9.60;;
3036;SDS011;1528;52.550;13.408;2023-05-21T15:01:37;10.77;;;10.27;;
3036;SDS011;1528;52.550;13.408;2023-05-21T15:04:23;11.03;;;9.60;;
3036;SDS011;1528;52.550;13.408;2023-05-21T15:07:08;9.80;;;9.30;;
3036;SDS011;1528;52.550;13.408;2023-05-21T15:09:54;9.80;;;9.30;;
3036;SDS011;1528;52.550;13.408;2023-05-21T15:12:40;9.63;;;8.93;;
3036;SDS011;1528;52.550;13.408;2023-05-21T15:15:25;10.20;;;9.60;;
3036;SDS011;1528;52.550;13.408;2023-05-21T15:18:12;9.97;;;9.47;;
3036;SDS011;1528;52.550;13.408;2023-05-21T15:20:58;9.93;;;9.00;;
3036;SDS011;1528;52.550;13.408;2023-05-21T15:23:44;9.00;;;8.50;;
3036;SDS011;1528;52.550;13.408;2023-05-21T15:26:30;9.40;;;8.80;;
3036;SDS011;1528;52.550;13.408;2023-05-21T15:29:15;9.40;;;8.80;;
3036;SDS011;1528;52.550;13.408;2023-05-21T15:32:00;9.07;;;8.50;;
3036;SDS011;1528;52.550;13.408;2023-05-21T15:34:49;9.00;;;8.50;;
3036;SDS011;1528;52.550;13.408;2023-05-21T15:37:35;8.80;;;8.30;;
3036;SDS011;1528;52.550;13.408;2023-05-21T15:40:20;9.47;;;8.90;;
3036;SDS011;1528;52.550;13.408;2023-05-21T15:43:06;9.93;;;9.43;;
3036;SDS011;1528;52.550;13.408;2023-05-21T15:45:52;9.50;;;9.00;;
3036;SDS011;1528;52.550;13.408;2023-05-21T15:48:37;8.87;;;8.30;;
3036;SDS011;1528;52.550;13.408;2023-05-21T15:51:24;9.50;;;8.90;;
3036;SDS011;1528;52.550;13.408;2023-05-21T15:54:10;8.13;;;7.57;;
3036;SDS011;1528;52.550;13.408;2023-05-21T15:56:56;8.80;;;8.30;;
3036;SDS011;1528;52.550;13.408;2023-05-21T15:59:42;8.93;;;8.33;;
3036;SDS011;1528;52.550;13.408;2023-05-21T16:02:27;8.00;;;7.40;;
3036;SDS011;1528;52.550;13.408;2023-05-21T16:05:13;8.90;;;8.40;;
3036;SDS011;1528;52.550;13.408;2023-05-21T16:08:00;9.50;;;8.90;;
3036;SDS011;1528;52.550;13.408;2023-05-21T16:10:45;9.77;;;9.00;;
3036;SDS011;1528;52.550;13.408;2023-05-21T16:13:31;9.10;;;8.40;;
3036;SDS011;1528;52.550;13.408;2023-05-21T16:16:16;9.10;;;8.20;;
3036;SDS011;1528;52.550;13.408;2023-05-21T16:19:02;9.70;;;9.00;;
3036;SDS011;1528;52.550;13.408;2023-05-21T16:21:47;7.67;;;7.20;;
3036;SDS011;1528;52.550;13.408;2023-05-21T16:24:34;9.50;;;8.90;;
3036;SDS011;1528;52.550;13.408;2023-05-21T16:27:20;9.13;;;8.27;;
3036;SDS011;1528;52.550;13.408;2023-05-21T16:30:06;8.43;;;7.73;;
3036;SDS011;1528;52.550;13.408;2023-05-21T16:32:52;9.03;;;8.43;;
3036;SDS011;1528;52.550;13.408;2023-05-21T16:35:38;8.70;;;8.00;;
3036;SDS011;1528;52.550;13.408;2023-05-21T16:38:23;8.80;;;8.20;;
3036;SDS011;1528;52.550;13.408;2023-05-21T16:41:10;8.20;;;7.50;;